sensor_id;sensor_type;location;lat;lon;timestamp;temperature;humidity
16635;DHT22;8431;52.458;9.998;2023-04-03T00:01:45;0.10;99.90
16635;DHT22;8431;52.458;9.998;2023-04-03T00:04:12;-0.10;99.90
16635;DHT22;8431;52.458;9.998;2023-04-03T00:06:39;-0.20;99.90
16635;DHT22;8431;52.458;9.998;2023-04-03T00:09:06;-0.40;99.90
16635;DHT22;8431;52.458;9.998;2023-04-03T00:11:33;-0.30;99.90
16635;DHT22;8431;52.458;9.998;2023-04-03T00:13:59;-0.30;99.90
16635;DHT22;8431;52.458;9.998;2023-04-03T00:16:28;-0.20;99.90
16635;DHT22;8431;52.458;9.998;2023-04-03T00:18:55;-0.20;99.90
16635;DHT22;8431;52.458;9.998;2023-04-03T00:21:22;-0.20;99.90
16635;DHT22;8431;52.458;9.998;2023-04-03T00:23:49;-0.10;99.90
16635;DHT22;8431;52.458;9.998;2023-04-03T00:26:16;-0.20;99.90
16635;DHT22;8431;52.458;9.998;2023-04-03T00:28:43;-0.20;99.90
16635;DHT22;8431;52.458;9.998;2023-04-03T00:31:10;-0.10;99.90
16635;DHT22;8431;52.458;9.998;2023-04-03T00:33:38;-0.20;99.90
16635;DHT22;8431;52.458;9.998;2023-04-03T00:36:06;-0.20;99.90
16635;DHT22;8431;52.458;9.998;2023-04-03T00:38:34;-0.20;99.90
16635;DHT22;8431;52.458;9.998;2023-04-03T00:41:02;-0.20;99.90
16635;DHT22;8431;52.458;9.998;2023-04-03T00:43:30;-0.20;99.90
16635;DHT22;8431;52.458;9.998;2023-04-03T00:45:57;-0.20;99.90
16635;DHT22;8431;52.458;9.998;2023-04-03T00:48:29;-0.20;99.90
16635;DHT22;8431;52.458;9.998;2023-04-03T00:50:58;-0.20;99.90
16635;DHT22;8431;52.458;9.998;2023-04-03T00:53:29;-0.20;99.90
16635;DHT22;8431;52.458;9.998;2023-04-03T00:55:57;-0.30;99.90
16635;DHT22;8431;52.458;9.998;2023-04-03T00:58:31;-0.40;99.90
16635;DHT22;8431;52.458;9.998;2023-04-03T01:01:05;-0.30;99.90
16635;DHT22;8431;52.458;9.998;2023-04-03T01:03:33;-0.40;99.90
16635;DHT22;8431;52.458;9.998;2023-04-03T01:06:02;-0.50;99.90
16635;DHT22;8431;52.458;9.998;2023-04-03T01:08:30;-0.30;99.90
16635;DHT22;8431;52.458;9.998;2023-04-03T01:11:00;-0.30;99.90
16635;DHT22;8431;52.458;9.998;2023-04-03T01:13:29;-0.20;99.90
16635;DHT22;8431;52.458;9.998;2023-04-03T01:15:57;-0.30;99.90
16635;DHT22;8431;52.458;9.998;2023-04-03T01:18:27;-0.30;99.90
16635;DHT22;8431;52.458;9.998;2023-04-03T01:24:23;-0.40;99.90
16635;DHT22;8431;52.458;9.998;2023-04-03T01:26:51;-0.40;99.90
16635;DHT22;8431;52.458;9.998;2023-04-03T01:29:18;-0.50;99.90
16635;DHT22;8431;52.458;9.998;2023-04-03T01:31:50;-0.50;99.90
16635;DHT22;8431;52.458;9.998;2023-04-03T01:34:18;-0.60;99.90
16635;DHT22;8431;52.458;9.998;2023-04-03T01:36:46;-0.60;99.90
16635;DHT22;8431;52.458;9.998;2023-04-03T01:39:13;-0.70;99.90
16635;DHT22;8431;52.458;9.998;2023-04-03T01:41:40;-0.80;99.90
16635;DHT22;8431;52.458;9.998;2023-04-03T01:44:07;-0.80;99.90
16635;DHT22;8431;52.458;9.998;2023-04-03T01:46:34;-0.80;99.90
16635;DHT22;8431;52.458;9.998;2023-04-03T01:49:04;-0.90;99.90
16635;DHT22;8431;52.458;9.998;2023-04-03T01:51:32;-0.90;99.90
16635;DHT22;8431;52.458;9.998;2023-04-03T01:53:59;-0.90;99.90
16635;DHT22;8431;52.458;9.998;2023-04-03T01:56:26;-0.90;99.90
16635;DHT22;8431;52.458;9.998;2023-04-03T01:58:53;-0.90;99.90
16635;DHT22;8431;52.458;9.998;2023-04-03T02:01:20;-0.90;99.90
16635;DHT22;8431;52.458;9.998;2023-04-03T02:03:47;-0.80;99.90
16635;DHT22;8431;52.458;9.998;2023-04-03T02:06:16;-0.80;99.90
16635;DHT22;8431;52.458;9.998;2023-04-03T02:08:43;-0.90;99.90
16635;DHT22;8431;52.458;9.998;2023-04-03T02:11:10;-0.90;99.90
16635;DHT22;8431;52.458;9.998;2023-04-03T02:13:37;-1.00;99.90
16635;DHT22;8431;52.458;9.998;2023-04-03T02:16:09;-1.10;99.90
16635;DHT22;8431;52.458;9.998;2023-04-03T02:18:37;-1.10;99.90
16635;DHT22;8431;52.458;9.998;2023-04-03T02:21:04;-1.10;99.90
16635;DHT22;8431;52.458;9.998;2023-04-03T02:23:32;-1.10;99.90
16635;DHT22;8431;52.458;9.998;2023-04-03T02:26:06;-1.20;99.90
16635;DHT22;8431;52.458;9.998;2023-04-03T02:28:34;-1.20;99.90
16635;DHT22;8431;52.458;9.998;2023-04-03T02:31:01;-1.20;99.90
16635;DHT22;8431;52.458;9.998;2023-04-03T02:33:28;-1.40;99.90
16635;DHT22;8431;52.458;9.998;2023-04-03T02:35:56;-1.40;99.90
16635;DHT22;8431;52.458;9.998;2023-04-03T02:38:24;-1.50;99.90
16635;DHT22;8431;52.458;9.998;2023-04-03T02:40:52;-1.50;99.90
16635;DHT22;8431;52.458;9.998;2023-04-03T02:43:19;-1.50;99.90
16635;DHT22;8431;52.458;9.998;2023-04-03T02:45:46;-1.50;99.90
16635;DHT22;8431;52.458;9.998;2023-04-03T02:48:13;-1.50;99.90
16635;DHT22;8431;52.458;9.998;2023-04-03T02:50:42;-1.40;99.90
16635;DHT22;8431;52.458;9.998;2023-04-03T02:53:09;-1.50;99.90
16635;DHT22;8431;52.458;9.998;2023-04-03T02:55:36;-1.50;99.90
16635;DHT22;8431;52.458;9.998;2023-04-03T02:58:04;-1.40;99.90
16635;DHT22;8431;52.458;9.998;2023-04-03T03:00:31;-1.40;99.90
16635;DHT22;8431;52.458;9.998;2023-04-03T03:02:58;-1.30;99.90
16635;DHT22;8431;52.458;9.998;2023-04-03T03:05:25;-1.30;99.90
16635;DHT22;8431;52.458;9.998;2023-04-03T03:07:53;-1.30;99.90
16635;DHT22;8431;52.458;9.998;2023-04-03T03:10:20;-1.30;99.90
16635;DHT22;8431;52.458;9.998;2023-04-03T03:12:48;-1.30;99.90
16635;DHT22;8431;52.458;9.998;2023-04-03T03:15:16;-1.40;99.90
16635;DHT22;8431;52.458;9.998;2023-04-03T03:17:45;-1.40;99.90
16635;DHT22;8431;52.458;9.998;2023-04-03T03:20:12;-1.40;99.90
16635;DHT22;8431;52.458;9.998;2023-04-03T03:22:41;-1.40;99.90
16635;DHT22;8431;52.458;9.998;2023-04-03T03:25:08;-1.40;99.90
16635;DHT22;8431;52.458;9.998;2023-04-03T03:27:35;-1.40;99.90
16635;DHT22;8431;52.458;9.998;2023-04-03T03:30:03;-1.40;99.90
16635;DHT22;8431;52.458;9.998;2023-04-03T03:32:33;-1.50;99.90
16635;DHT22;8431;52.458;9.998;2023-04-03T03:35:00;-1.60;99.90
16635;DHT22;8431;52.458;9.998;2023-04-03T03:37:27;-1.60;99.90
16635;DHT22;8431;52.458;9.998;2023-04-03T03:39:54;-1.60;99.90
16635;DHT22;8431;52.458;9.998;2023-04-03T03:42:21;-1.70;99.90
16635;DHT22;8431;52.458;9.998;2023-04-03T03:44:48;-1.70;99.90
16635;DHT22;8431;52.458;9.998;2023-04-03T03:47:15;-1.70;99.90
16635;DHT22;8431;52.458;9.998;2023-04-03T03:49:43;-1.70;99.90
16635;DHT22;8431;52.458;9.998;2023-04-03T03:52:10;-1.80;99.90
16635;DHT22;8431;52.458;9.998;2023-04-03T03:54:37;-1.80;99.90
16635;DHT22;8431;52.458;9.998;2023-04-03T03:57:04;-1.80;99.90
16635;DHT22;8431;52.458;9.998;2023-04-03T03:59:31;-1.70;99.90
16635;DHT22;8431;52.458;9.998;2023-04-03T04:01:58;-1.80;99.90
16635;DHT22;8431;52.458;9.998;2023-04-03T04:04:25;-1.80;99.90
16635;DHT22;8431;52.458;9.998;2023-04-03T04:06:54;-1.90;99.90
16635;DHT22;8431;52.458;9.998;2023-04-03T04:09:21;-1.90;99.90
16635;DHT22;8431;52.458;9.998;2023-04-03T04:11:48;-1.90;99.90
16635;DHT22;8431;52.458;9.998;2023-04-03T04:14:15;-1.90;99.90
16635;DHT22;8431;52.458;9.998;2023-04-03T04:16:42;-1.90;99.90
16635;DHT22;8431;52.458;9.998;2023-04-03T04:19:09;-1.90;99.90
16635;DHT22;8431;52.458;9.998;2023-04-03T04:21:36;-2.00;99.90
16635;DHT22;8431;52.458;9.998;2023-04-03T04:24:05;-2.00;99.90
16635;DHT22;8431;52.458;9.998;2023-04-03T04:26:32;-2.00;99.90
16635;DHT22;8431;52.458;9.998;2023-04-03T04:28:59;-2.00;99.90
16635;DHT22;8431;52.458;9.998;2023-04-03T04:31:26;-2.00;99.90
16635;DHT22;8431;52.458;9.998;2023-04-03T04:33:53;-2.00;99.90
16635;DHT22;8431;52.458;9.998;2023-04-03T04:36:20;-1.90;99.90
16635;DHT22;8431;52.458;9.998;2023-04-03T04:38:47;-1.90;99.90
16635;DHT22;8431;52.458;9.998;2023-04-03T04:41:19;-1.90;99.90
16635;DHT22;8431;52.458;9.998;2023-04-03T04:43:48;-1.90;99.90
16635;DHT22;8431;52.458;9.998;2023-04-03T04:46:15;-1.90;99.90
16635;DHT22;8431;52.458;9.998;2023-04-03T04:48:42;-1.90;99.90
16635;DHT22;8431;52.458;9.998;2023-04-03T04:51:09;-1.90;99.90
16635;DHT22;8431;52.458;9.998;2023-04-03T04:53:37;-2.00;99.90
16635;DHT22;8431;52.458;9.998;2023-04-03T04:56:04;-2.00;99.90
16635;DHT22;8431;52.458;9.998;2023-04-03T04:58:33;-2.00;99.90
16635;DHT22;8431;52.458;9.998;2023-04-03T05:01:00;-2.00;99.90
16635;DHT22;8431;52.458;9.998;2023-04-03T05:03:28;-2.10;99.90
16635;DHT22;8431;52.458;9.998;2023-04-03T05:05:55;-2.10;99.90
16635;DHT22;8431;52.458;9.998;2023-04-03T05:08:22;-2.10;99.90
16635;DHT22;8431;52.458;9.998;2023-04-03T05:10:49;-2.00;99.90
16635;DHT22;8431;52.458;9.998;2023-04-03T05:13:16;-2.00;99.90
16635;DHT22;8431;52.458;9.998;2023-04-03T05:15:44;-1.90;99.90
16635;DHT22;8431;52.458;9.998;2023-04-03T05:18:11;-1.90;99.90
16635;DHT22;8431;52.458;9.998;2023-04-03T05:20:38;-1.90;99.90
16635;DHT22;8431;52.458;9.998;2023-04-03T05:23:05;-1.80;99.90
16635;DHT22;8431;52.458;9.998;2023-04-03T05:25:33;-1.80;99.90
16635;DHT22;8431;52.458;9.998;2023-04-03T05:27:59;-1.70;99.90
16635;DHT22;8431;52.458;9.998;2023-04-03T05:30:26;-1.70;99.90
16635;DHT22;8431;52.458;9.998;2023-04-03T05:32:55;-1.60;99.90
16635;DHT22;8431;52.458;9.998;2023-04-03T05:35:22;-1.50;99.90
16635;DHT22;8431;52.458;9.998;2023-04-03T05:37:49;-1.50;99.90
16635;DHT22;8431;52.458;9.998;2023-04-03T05:40:16;-1.50;99.90
16635;DHT22;8431;52.458;9.998;2023-04-03T05:42:44;-1.40;99.90
16635;DHT22;8431;52.458;9.998;2023-04-03T05:45:11;-1.40;99.90
16635;DHT22;8431;52.458;9.998;2023-04-03T05:47:38;-1.30;99.90
16635;DHT22;8431;52.458;9.998;2023-04-03T05:50:07;-1.30;99.90
16635;DHT22;8431;52.458;9.998;2023-04-03T05:52:37;-1.20;99.90
16635;DHT22;8431;52.458;9.998;2023-04-03T05:55:05;-1.20;99.90
16635;DHT22;8431;52.458;9.998;2023-04-03T05:57:32;-1.10;99.90
16635;DHT22;8431;52.458;9.998;2023-04-03T06:00:00;-1.10;99.90
16635;DHT22;8431;52.458;9.998;2023-04-03T06:02:28;-1.00;99.90
16635;DHT22;8431;52.458;9.998;2023-04-03T06:04:55;-1.00;99.90
16635;DHT22;8431;52.458;9.998;2023-04-03T06:07:24;-0.90;99.90
16635;DHT22;8431;52.458;9.998;2023-04-03T06:09:55;-0.90;99.90
16635;DHT22;8431;52.458;9.998;2023-04-03T06:12:22;-0.80;99.90
16635;DHT22;8431;52.458;9.998;2023-04-03T06:14:49;-0.70;99.90
16635;DHT22;8431;52.458;9.998;2023-04-03T06:17:16;-0.70;99.90
16635;DHT22;8431;52.458;9.998;2023-04-03T06:19:44;-0.60;99.90
16635;DHT22;8431;52.458;9.998;2023-04-03T06:22:11;-0.60;99.90
16635;DHT22;8431;52.458;9.998;2023-04-03T06:24:39;-0.50;99.90
16635;DHT22;8431;52.458;9.998;2023-04-03T06:27:07;-0.40;99.90
16635;DHT22;8431;52.458;9.998;2023-04-03T06:29:34;-0.40;99.90
16635;DHT22;8431;52.458;9.998;2023-04-03T06:32:01;-0.30;99.90
16635;DHT22;8431;52.458;9.998;2023-04-03T06:34:28;-0.30;99.90
16635;DHT22;8431;52.458;9.998;2023-04-03T06:36:55;-0.20;99.90
16635;DHT22;8431;52.458;9.998;2023-04-03T06:39:22;-0.10;99.90
16635;DHT22;8431;52.458;9.998;2023-04-03T06:41:51;0.00;99.90
16635;DHT22;8431;52.458;9.998;2023-04-03T06:44:18;0.10;99.90
16635;DHT22;8431;52.458;9.998;2023-04-03T06:46:45;0.20;99.90
16635;DHT22;8431;52.458;9.998;2023-04-03T06:49:12;0.20;99.90
16635;DHT22;8431;52.458;9.998;2023-04-03T06:51:40;0.30;99.90
16635;DHT22;8431;52.458;9.998;2023-04-03T06:54:07;0.30;99.90
16635;DHT22;8431;52.458;9.998;2023-04-03T06:56:34;0.50;99.90
16635;DHT22;8431;52.458;9.998;2023-04-03T06:59:03;0.60;99.90
16635;DHT22;8431;52.458;9.998;2023-04-03T07:01:30;0.60;99.90
16635;DHT22;8431;52.458;9.998;2023-04-03T07:03:57;0.60;99.90
16635;DHT22;8431;52.458;9.998;2023-04-03T07:06:24;0.70;99.90
16635;DHT22;8431;52.458;9.998;2023-04-03T07:08:53;0.70;99.90
16635;DHT22;8431;52.458;9.998;2023-04-03T07:11:20;0.80;99.90
16635;DHT22;8431;52.458;9.998;2023-04-03T07:13:48;1.00;99.90
16635;DHT22;8431;52.458;9.998;2023-04-03T07:16:16;1.10;99.90
16635;DHT22;8431;52.458;9.998;2023-04-03T07:18:43;1.10;99.90
16635;DHT22;8431;52.458;9.998;2023-04-03T07:21:10;1.20;99.90
16635;DHT22;8431;52.458;9.998;2023-04-03T07:23:37;1.30;99.90
16635;DHT22;8431;52.458;9.998;2023-04-03T07:26:05;1.40;99.90
16635;DHT22;8431;52.458;9.998;2023-04-03T07:28:32;1.40;99.90
16635;DHT22;8431;52.458;9.998;2023-04-03T07:31:01;1.60;99.90
16635;DHT22;8431;52.458;9.998;2023-04-03T07:33:30;1.70;99.90
16635;DHT22;8431;52.458;9.998;2023-04-03T07:35:58;1.70;99.90
16635;DHT22;8431;52.458;9.998;2023-04-03T07:38:26;1.80;99.90
16635;DHT22;8431;52.458;9.998;2023-04-03T07:40:53;1.80;99.90
16635;DHT22;8431;52.458;9.998;2023-04-03T07:43:21;1.90;99.90
16635;DHT22;8431;52.458;9.998;2023-04-03T07:45:50;1.90;99.90
16635;DHT22;8431;52.458;9.998;2023-04-03T07:48:19;2.10;99.90
16635;DHT22;8431;52.458;9.998;2023-04-03T07:50:59;2.30;99.90
16635;DHT22;8431;52.458;9.998;2023-04-03T07:53:26;2.40;99.90
16635;DHT22;8431;52.458;9.998;2023-04-03T07:55:53;2.40;99.90
16635;DHT22;8431;52.458;9.998;2023-04-03T07:58:23;2.60;99.90
16635;DHT22;8431;52.458;9.998;2023-04-03T08:00:51;2.60;99.90
16635;DHT22;8431;52.458;9.998;2023-04-03T08:03:18;2.80;99.90
16635;DHT22;8431;52.458;9.998;2023-04-03T08:05:47;2.90;99.90
16635;DHT22;8431;52.458;9.998;2023-04-03T08:08:17;3.00;99.90
16635;DHT22;8431;52.458;9.998;2023-04-03T08:10:49;3.10;99.90
16635;DHT22;8431;52.458;9.998;2023-04-03T08:13:16;3.10;99.90
16635;DHT22;8431;52.458;9.998;2023-04-03T08:15:43;3.30;99.90
16635;DHT22;8431;52.458;9.998;2023-04-03T08:18:11;3.40;99.90
16635;DHT22;8431;52.458;9.998;2023-04-03T08:20:38;3.50;99.90
16635;DHT22;8431;52.458;9.998;2023-04-03T08:23:06;3.60;99.90
16635;DHT22;8431;52.458;9.998;2023-04-03T08:25:39;3.60;99.90
16635;DHT22;8431;52.458;9.998;2023-04-03T08:28:06;3.60;99.90
16635;DHT22;8431;52.458;9.998;2023-04-03T08:30:34;3.80;99.90
16635;DHT22;8431;52.458;9.998;2023-04-03T08:33:01;3.90;99.90
16635;DHT22;8431;52.458;9.998;2023-04-03T08:35:28;3.90;99.90
16635;DHT22;8431;52.458;9.998;2023-04-03T08:37:55;3.90;99.90
16635;DHT22;8431;52.458;9.998;2023-04-03T08:40:23;3.90;99.90
16635;DHT22;8431;52.458;9.998;2023-04-03T08:43:00;3.80;99.90
16635;DHT22;8431;52.458;9.998;2023-04-03T08:45:39;3.90;99.90
16635;DHT22;8431;52.458;9.998;2023-04-03T08:48:13;4.20;99.90
16635;DHT22;8431;52.458;9.998;2023-04-03T08:50:44;4.40;99.90
16635;DHT22;8431;52.458;9.998;2023-04-03T08:53:15;4.50;99.90
16635;DHT22;8431;52.458;9.998;2023-04-03T08:55:45;4.60;99.90
16635;DHT22;8431;52.458;9.998;2023-04-03T08:58:16;4.60;99.90
16635;DHT22;8431;52.458;9.998;2023-04-03T09:00:47;4.50;99.90
16635;DHT22;8431;52.458;9.998;2023-04-03T09:03:17;4.50;99.90
16635;DHT22;8431;52.458;9.998;2023-04-03T09:05:48;4.40;99.90
16635;DHT22;8431;52.458;9.998;2023-04-03T09:08:26;4.50;99.90
16635;DHT22;8431;52.458;9.998;2023-04-03T09:11:04;4.60;99.90
16635;DHT22;8431;52.458;9.998;2023-04-03T09:13:41;4.70;99.90
16635;DHT22;8431;52.458;9.998;2023-04-03T09:16:20;4.70;99.90
16635;DHT22;8431;52.458;9.998;2023-04-03T09:18:53;4.70;99.90
16635;DHT22;8431;52.458;9.998;2023-04-03T09:21:36;4.70;99.90
16635;DHT22;8431;52.458;9.998;2023-04-03T09:24:05;4.80;99.90
16635;DHT22;8431;52.458;9.998;2023-04-03T09:26:39;4.80;99.90
16635;DHT22;8431;52.458;9.998;2023-04-03T09:29:19;5.00;99.90
16635;DHT22;8431;52.458;9.998;2023-04-03T09:31:49;5.30;99.90
16635;DHT22;8431;52.458;9.998;2023-04-03T09:34:20;5.30;99.90
16635;DHT22;8431;52.458;9.998;2023-04-03T09:36:51;5.20;99.90
16635;DHT22;8431;52.458;9.998;2023-04-03T09:39:20;5.40;99.90
16635;DHT22;8431;52.458;9.998;2023-04-03T09:42:11;5.50;99.90
16635;DHT22;8431;52.458;9.998;2023-04-03T09:44:54;5.70;99.90
16635;DHT22;8431;52.458;9.998;2023-04-03T09:47:25;5.60;99.90
16635;DHT22;8431;52.458;9.998;2023-04-03T09:50:21;5.80;99.90
16635;DHT22;8431;52.458;9.998;2023-04-03T09:52:50;5.90;99.90
16635;DHT22;8431;52.458;9.998;2023-04-03T09:55:21;5.90;99.90
16635;DHT22;8431;52.458;9.998;2023-04-03T09:57:52;6.20;99.90
16635;DHT22;8431;52.458;9.998;2023-04-03T10:00:26;6.20;99.90
16635;DHT22;8431;52.458;9.998;2023-04-03T10:02:55;6.50;99.90
16635;DHT22;8431;52.458;9.998;2023-04-03T10:05:32;6.80;99.90
16635;DHT22;8431;52.458;9.998;2023-04-03T10:08:22;6.90;99.90
16635;DHT22;8431;52.458;9.998;2023-04-03T10:11:06;6.80;99.90
16635;DHT22;8431;52.458;9.998;2023-04-03T10:13:35;6.20;99.90
16635;DHT22;8431;52.458;9.998;2023-04-03T10:16:08;6.00;99.90
16635;DHT22;8431;52.458;9.998;2023-04-03T10:18:42;5.70;99.90
16635;DHT22;8431;52.458;9.998;2023-04-03T10:21:14;5.50;99.90
16635;DHT22;8431;52.458;9.998;2023-04-03T10:23:45;5.30;99.90
16635;DHT22;8431;52.458;9.998;2023-04-03T10:26:20;5.50;99.90
16635;DHT22;8431;52.458;9.998;2023-04-03T10:28:55;5.50;99.90
16635;DHT22;8431;52.458;9.998;2023-04-03T10:31:33;5.50;99.90
16635;DHT22;8431;52.458;9.998;2023-04-03T10:34:06;5.60;99.90
16635;DHT22;8431;52.458;9.998;2023-04-03T10:36:45;5.60;99.90
16635;DHT22;8431;52.458;9.998;2023-04-03T10:39:20;5.50;99.90
16635;DHT22;8431;52.458;9.998;2023-04-03T10:42:01;5.70;99.90
16635;DHT22;8431;52.458;9.998;2023-04-03T10:44:36;6.20;99.90
16635;DHT22;8431;52.458;9.998;2023-04-03T10:47:14;6.50;99.90
16635;DHT22;8431;52.458;9.998;2023-04-03T10:49:50;6.50;99.90
16635;DHT22;8431;52.458;9.998;2023-04-03T10:52:23;6.80;99.90
16635;DHT22;8431;52.458;9.998;2023-04-03T10:54:59;6.80;99.90
16635;DHT22;8431;52.458;9.998;2023-04-03T10:57:32;6.70;99.90
16635;DHT22;8431;52.458;9.998;2023-04-03T11:00:14;6.50;99.90
16635;DHT22;8431;52.458;9.998;2023-04-03T11:02:50;6.50;99.90
16635;DHT22;8431;52.458;9.998;2023-04-03T11:05:25;6.90;99.90
16635;DHT22;8431;52.458;9.998;2023-04-03T11:07:55;7.00;99.90
16635;DHT22;8431;52.458;9.998;2023-04-03T11:10:28;7.00;99.90
16635;DHT22;8431;52.458;9.998;2023-04-03T11:13:02;7.20;99.90
16635;DHT22;8431;52.458;9.998;2023-04-03T11:15:33;7.00;99.90
16635;DHT22;8431;52.458;9.998;2023-04-03T11:18:06;6.50;99.90
16635;DHT22;8431;52.458;9.998;2023-04-03T11:20:33;6.30;99.90
16635;DHT22;8431;52.458;9.998;2023-04-03T11:23:05;6.00;99.90
16635;DHT22;8431;52.458;9.998;2023-04-03T11:25:35;5.90;99.90
16635;DHT22;8431;52.458;9.998;2023-04-03T11:28:05;6.20;99.90
16635;DHT22;8431;52.458;9.998;2023-04-03T11:30:37;6.50;99.90
16635;DHT22;8431;52.458;9.998;2023-04-03T11:33:32;6.70;99.90
16635;DHT22;8431;52.458;9.998;2023-04-03T11:36:07;7.20;99.90
16635;DHT22;8431;52.458;9.998;2023-04-03T11:38:38;7.70;99.90
16635;DHT22;8431;52.458;9.998;2023-04-03T11:41:09;8.00;99.90
16635;DHT22;8431;52.458;9.998;2023-04-03T11:43:41;7.90;99.90
16635;DHT22;8431;52.458;9.998;2023-04-03T11:46:09;7.40;99.90
16635;DHT22;8431;52.458;9.998;2023-04-03T11:48:47;6.90;99.90
16635;DHT22;8431;52.458;9.998;2023-04-03T11:54:43;6.80;99.90
16635;DHT22;8431;52.458;9.998;2023-04-03T12:00:47;6.20;99.90
16635;DHT22;8431;52.458;9.998;2023-04-03T12:03:57;6.10;99.90
16635;DHT22;8431;52.458;9.998;2023-04-03T12:09:54;5.90;99.90
16635;DHT22;8431;52.458;9.998;2023-04-03T12:12:30;6.00;99.90
16635;DHT22;8431;52.458;9.998;2023-04-03T12:15:17;6.10;99.90
16635;DHT22;8431;52.458;9.998;2023-04-03T12:17:45;6.30;99.90
16635;DHT22;8431;52.458;9.998;2023-04-03T12:23:32;6.30;99.90
16635;DHT22;8431;52.458;9.998;2023-04-03T12:26:06;6.10;99.90
16635;DHT22;8431;52.458;9.998;2023-04-03T12:28:48;6.00;99.90
16635;DHT22;8431;52.458;9.998;2023-04-03T12:31:19;5.90;99.90
16635;DHT22;8431;52.458;9.998;2023-04-03T12:36:41;5.70;99.90
16635;DHT22;8431;52.458;9.998;2023-04-03T12:39:32;5.80;99.90
16635;DHT22;8431;52.458;9.998;2023-04-03T12:42:08;6.00;99.90
16635;DHT22;8431;52.458;9.998;2023-04-03T12:44:47;6.50;99.90
16635;DHT22;8431;52.458;9.998;2023-04-03T12:47:24;6.70;99.90
16635;DHT22;8431;52.458;9.998;2023-04-03T12:49:53;7.10;99.90
16635;DHT22;8431;52.458;9.998;2023-04-03T12:52:30;7.60;99.90
16635;DHT22;8431;52.458;9.998;2023-04-03T12:55:00;8.10;99.90
16635;DHT22;8431;52.458;9.998;2023-04-03T12:57:30;8.20;99.90
16635;DHT22;8431;52.458;9.998;2023-04-03T12:59:58;7.90;99.90
16635;DHT22;8431;52.458;9.998;2023-04-03T13:02:27;7.10;99.90
16635;DHT22;8431;52.458;9.998;2023-04-03T13:04:57;7.00;99.90
16635;DHT22;8431;52.458;9.998;2023-04-03T13:07:28;7.40;99.90
16635;DHT22;8431;52.458;9.998;2023-04-03T13:10:17;7.60;99.90
16635;DHT22;8431;52.458;9.998;2023-04-03T13:12:47;7.80;99.90
16635;DHT22;8431;52.458;9.998;2023-04-03T13:15:17;7.60;99.90
16635;DHT22;8431;52.458;9.998;2023-04-03T13:17:45;7.60;99.90
16635;DHT22;8431;52.458;9.998;2023-04-03T13:20:19;7.90;99.90
16635;DHT22;8431;52.458;9.998;2023-04-03T13:22:50;7.80;99.90
16635;DHT22;8431;52.458;9.998;2023-04-03T13:25:21;8.00;99.90
16635;DHT22;8431;52.458;9.998;2023-04-03T13:27:49;8.30;99.90
16635;DHT22;8431;52.458;9.998;2023-04-03T13:30:23;8.40;99.90
16635;DHT22;8431;52.458;9.998;2023-04-03T13:32:56;8.10;99.90
16635;DHT22;8431;52.458;9.998;2023-04-03T13:35:37;7.80;99.90
16635;DHT22;8431;52.458;9.998;2023-04-03T13:38:21;7.90;99.90
16635;DHT22;8431;52.458;9.998;2023-04-03T13:40:51;7.40;99.90
16635;DHT22;8431;52.458;9.998;2023-04-03T13:43:20;7.00;99.90
16635;DHT22;8431;52.458;9.998;2023-04-03T13:45:57;6.70;99.90
16635;DHT22;8431;52.458;9.998;2023-04-03T13:48:25;6.90;99.90
16635;DHT22;8431;52.458;9.998;2023-04-03T13:50:58;6.90;99.90
16635;DHT22;8431;52.458;9.998;2023-04-03T13:53:28;7.00;99.90
16635;DHT22;8431;52.458;9.998;2023-04-03T13:56:00;6.90;99.90
16635;DHT22;8431;52.458;9.998;2023-04-03T14:01:55;6.90;99.90
16635;DHT22;8431;52.458;9.998;2023-04-03T14:04:44;6.60;99.90
16635;DHT22;8431;52.458;9.998;2023-04-03T14:07:12;6.40;99.90
16635;DHT22;8431;52.458;9.998;2023-04-03T14:09:39;6.50;99.90
16635;DHT22;8431;52.458;9.998;2023-04-03T14:12:13;6.80;99.90
16635;DHT22;8431;52.458;9.998;2023-04-03T14:14:42;6.80;99.90
16635;DHT22;8431;52.458;9.998;2023-04-03T14:17:15;7.10;99.90
16635;DHT22;8431;52.458;9.998;2023-04-03T14:19:43;7.30;99.90
16635;DHT22;8431;52.458;9.998;2023-04-03T14:22:14;7.70;99.90
16635;DHT22;8431;52.458;9.998;2023-04-03T14:24:41;7.60;99.90
16635;DHT22;8431;52.458;9.998;2023-04-03T14:27:16;7.70;99.90
16635;DHT22;8431;52.458;9.998;2023-04-03T14:29:47;7.40;99.90
16635;DHT22;8431;52.458;9.998;2023-04-03T14:32:15;6.80;99.90
16635;DHT22;8431;52.458;9.998;2023-04-03T14:34:43;6.90;99.90
16635;DHT22;8431;52.458;9.998;2023-04-03T14:37:14;6.80;99.90
16635;DHT22;8431;52.458;9.998;2023-04-03T14:39:42;7.10;99.90
16635;DHT22;8431;52.458;9.998;2023-04-03T14:42:15;7.40;99.90
16635;DHT22;8431;52.458;9.998;2023-04-03T14:44:42;7.50;99.90
16635;DHT22;8431;52.458;9.998;2023-04-03T14:47:11;7.40;99.90
16635;DHT22;8431;52.458;9.998;2023-04-03T14:49:38;7.10;99.90
16635;DHT22;8431;52.458;9.998;2023-04-03T14:52:05;6.80;99.90
16635;DHT22;8431;52.458;9.998;2023-04-03T14:54:32;6.30;99.90
16635;DHT22;8431;52.458;9.998;2023-04-03T14:57:00;6.10;99.90
16635;DHT22;8431;52.458;9.998;2023-04-03T14:59:31;6.10;99.90
16635;DHT22;8431;52.458;9.998;2023-04-03T15:01:59;6.20;99.90
16635;DHT22;8431;52.458;9.998;2023-04-03T15:04:26;6.80;99.90
16635;DHT22;8431;52.458;9.998;2023-04-03T15:06:53;7.20;99.90
16635;DHT22;8431;52.458;9.998;2023-04-03T15:09:22;7.50;99.90
16635;DHT22;8431;52.458;9.998;2023-04-03T15:11:50;7.80;99.90
16635;DHT22;8431;52.458;9.998;2023-04-03T15:14:18;8.10;99.90
16635;DHT22;8431;52.458;9.998;2023-04-03T15:16:46;8.10;99.90
16635;DHT22;8431;52.458;9.998;2023-04-03T15:19:13;7.90;99.90
16635;DHT22;8431;52.458;9.998;2023-04-03T15:21:40;7.60;99.90
16635;DHT22;8431;52.458;9.998;2023-04-03T15:24:09;7.00;99.90
16635;DHT22;8431;52.458;9.998;2023-04-03T15:26:36;6.80;99.90
16635;DHT22;8431;52.458;9.998;2023-04-03T15:29:04;6.70;99.90
16635;DHT22;8431;52.458;9.998;2023-04-03T15:31:32;6.70;99.90
16635;DHT22;8431;52.458;9.998;2023-04-03T15:34:00;6.70;99.90
16635;DHT22;8431;52.458;9.998;2023-04-03T15:36:28;6.80;99.90
16635;DHT22;8431;52.458;9.998;2023-04-03T15:38:55;6.70;99.90
16635;DHT22;8431;52.458;9.998;2023-04-03T15:41:22;6.60;99.90
16635;DHT22;8431;52.458;9.998;2023-04-03T15:43:51;6.40;99.90
16635;DHT22;8431;52.458;9.998;2023-04-03T15:46:20;6.30;99.90
16635;DHT22;8431;52.458;9.998;2023-04-03T15:48:48;6.20;99.90
16635;DHT22;8431;52.458;9.998;2023-04-03T15:51:16;6.00;99.90
16635;DHT22;8431;52.458;9.998;2023-04-03T15:53:43;6.20;99.90
16635;DHT22;8431;52.458;9.998;2023-04-03T15:56:10;6.40;99.90
16635;DHT22;8431;52.458;9.998;2023-04-03T15:58:37;6.60;99.90
16635;DHT22;8431;52.458;9.998;2023-04-03T16:01:06;6.70;99.90
16635;DHT22;8431;52.458;9.998;2023-04-03T16:03:33;6.70;99.90
16635;DHT22;8431;52.458;9.998;2023-04-03T16:06:01;6.80;99.90
16635;DHT22;8431;52.458;9.998;2023-04-03T16:08:29;7.10;99.90
16635;DHT22;8431;52.458;9.998;2023-04-03T16:10:56;7.30;99.90
16635;DHT22;8431;52.458;9.998;2023-04-03T16:13:23;7.30;99.90
16635;DHT22;8431;52.458;9.998;2023-04-03T16:15:50;7.30;99.90
16635;DHT22;8431;52.458;9.998;2023-04-03T16:18:17;7.40;99.90
16635;DHT22;8431;52.458;9.998;2023-04-03T16:20:44;7.50;99.90
16635;DHT22;8431;52.458;9.998;2023-04-03T16:23:12;7.10;99.90
16635;DHT22;8431;52.458;9.998;2023-04-03T16:25:40;6.90;99.90
16635;DHT22;8431;52.458;9.998;2023-04-03T16:28:11;6.80;99.90
16635;DHT22;8431;52.458;9.998;2023-04-03T16:30:39;6.50;99.90
16635;DHT22;8431;52.458;9.998;2023-04-03T16:33:06;6.20;99.90
16635;DHT22;8431;52.458;9.998;2023-04-03T16:35:33;6.10;99.90